Time;durP1;ratioP1;P1;durP2;ratioP2;P2;SDS_P1;SDS_P2;PMS_P1;PMS_P2;Temp;Humidity;BMP_temperature;BMP_pressure;BME280_temperature;BME280_humidity;BME280_pressure;Samples;Min_cycle;Max_cycle;Signal;HPM_P1;HPM_P2
2022/08/30 00:01:04;;;;;;;3.20;1.95;;;21.10;90.20;;;;;;5023674;28;20003;-91
2022/08/30 00:03:44;;;;;;;3.92;2.15;;;21.10;90.30;;;;;;5026040;28;20032;-90
2022/08/30 00:06:13;;;;;;;2.27;1.77;;;21.00;90.30;;;;;;5041492;28;20038;-87
2022/08/30 00:08:40;;;;;;;3.53;1.80;;;21.00;90.30;;;;;;5041643;28;20279;-88
2022/08/30 00:11:11;;;;;;;5.20;2.40;;;21.00;90.30;;;;;;5037359;28;20041;-87
2022/08/30 00:13:39;;;;;;;5.22;2.42;;;21.00;90.30;;;;;;5031190;28;20053;-91
2022/08/30 00:16:08;;;;;;;6.20;2.60;;;20.90;90.30;;;;;;5026811;28;20014;-87
2022/08/30 00:18:35;;;;;;;5.13;2.08;;;20.90;90.30;;;;;;5040845;28;20045;-88
2022/08/30 00:21:01;;;;;;;3.92;2.30;;;20.90;90.30;;;;;;5027181;28;20018;-88
2022/08/30 00:23:26;;;;;;;4.57;2.78;;;20.90;90.40;;;;;;5022211;28;20057;-87
2022/08/30 00:25:52;;;;;;;3.60;2.05;;;20.90;90.50;;;;;;5021110;28;20006;-90
2022/08/30 00:28:18;;;;;;;3.42;1.88;;;20.80;90.50;;;;;;5037787;28;20037;-88
2022/08/30 00:30:45;;;;;;;4.03;2.13;;;20.80;90.50;;;;;;5040954;28;20080;-88
2022/08/30 00:33:12;;;;;;;4.05;2.08;;;20.80;90.50;;;;;;5041125;28;20029;-86
2022/08/30 00:35:38;;;;;;;5.70;2.35;;;20.70;90.50;;;;;;5024281;28;20022;-89
2022/08/30 00:38:08;;;;;;;3.50;2.13;;;20.70;90.60;;;;;;5024221;28;20030;-90
2022/08/30 00:40:34;;;;;;;3.45;2.15;;;20.70;90.60;;;;;;5024573;28;20029;-89
2022/08/30 00:43:04;;;;;;;4.03;2.20;;;20.70;90.60;;;;;;5022260;28;20019;-89
2022/08/30 00:45:33;;;;;;;3.20;2.20;;;20.70;90.70;;;;;;5029542;28;20459;-90
2022/08/30 00:48:00;;;;;;;5.22;2.40;;;20.60;90.80;;;;;;5033470;28;20021;-90
2022/08/30 00:50:32;;;;;;;3.75;2.67;;;20.60;90.80;;;;;;5030198;28;20121;-90
2022/08/30 00:53:03;;;;;;;4.80;2.30;;;20.60;90.80;;;;;;5018300;28;20037;-90
2022/08/30 00:55:29;;;;;;;2.85;2.20;;;20.60;90.80;;;;;;5026190;28;20049;-90
2022/08/30 00:57:59;;;;;;;4.53;2.67;;;20.60;90.90;;;;;;5036404;28;20029;-90
2022/08/30 01:00:25;;;;;;;5.27;2.43;;;20.50;90.90;;;;;;5020823;28;20026;-90
2022/08/30 01:02:50;;;;;;;3.70;2.55;;;20.50;90.90;;;;;;5000811;28;20126;-91
2022/08/30 01:05:17;;;;;;;4.88;2.45;;;20.50;91.00;;;;;;5000842;28;20057;-91
2022/08/30 01:07:42;;;;;;;3.75;2.30;;;20.50;91.00;;;;;;5037665;28;20475;-89
2022/08/30 01:10:12;;;;;;;4.88;2.70;;;20.50;91.10;;;;;;5005785;28;20121;-90
2022/08/30 01:12:40;;;;;;;4.03;2.70;;;20.40;91.10;;;;;;5036593;28;20032;-90
2022/08/30 01:15:06;;;;;;;4.07;2.67;;;20.40;91.10;;;;;;5024223;28;20022;-90
2022/08/30 01:17:33;;;;;;;4.50;3.00;;;20.40;91.20;;;;;;5005448;28;20026;-91
2022/08/30 01:20:03;;;;;;;4.63;2.55;;;20.40;91.50;;;;;;5037507;28;20117;-90
2022/08/30 01:22:35;;;;;;;4.32;2.60;;;20.40;91.30;;;;;;5017983;28;20464;-88
2022/08/30 01:25:03;;;;;;;4.90;3.20;;;20.30;91.30;;;;;;5026043;28;20025;-90
2022/08/30 01:27:30;;;;;;;5.05;3.10;;;20.30;91.60;;;;;;5026544;28;20378;-91
2022/08/30 01:29:57;;;;;;;4.80;2.78;;;20.30;91.50;;;;;;5016123;28;20038;-90
2022/08/30 01:32:26;;;;;;;4.05;3.20;;;20.30;91.50;;;;;;5020522;28;20030;-90
2022/08/30 01:34:51;;;;;;;4.40;3.10;;;20.30;91.60;;;;;;5016638;28;20030;-90
2022/08/30 01:37:31;;;;;;;6.22;2.80;;;20.30;91.60;;;;;;5030718;28;20041;-90
2022/08/30 01:39:58;;;;;;;6.28;3.05;;;20.30;91.60;;;;;;5004548;28;20034;-90
2022/08/30 01:42:24;;;;;;;5.82;3.08;;;20.20;91.50;;;;;;5000013;28;20030;-89
2022/08/30 01:44:50;;;;;;;5.72;2.70;;;20.20;91.70;;;;;;5021253;28;20071;-91
2022/08/30 01:47:17;;;;;;;6.35;3.08;;;20.20;91.70;;;;;;5024699;28;20448;-91
2022/08/30 01:49:44;;;;;;;5.20;2.85;;;20.10;91.90;;;;;;5017554;28;20025;-91
2022/08/30 01:52:11;;;;;;;5.05;2.85;;;20.10;91.70;;;;;;5039449;28;20458;-91
2022/08/30 01:54:39;;;;;;;3.22;2.63;;;20.10;91.80;;;;;;5021993;28;20033;-90
2022/08/30 01:57:13;;;;;;;4.88;3.00;;;20.10;91.80;;;;;;5027358;28;20109;-91
2022/08/30 01:59:42;;;;;;;7.43;3.90;;;20.10;91.90;;;;;;5032484;28;20029;-91
2022/08/30 02:02:09;;;;;;;5.55;3.10;;;20.10;91.90;;;;;;5036221;28;20068;-91
2022/08/30 02:04:35;;;;;;;3.83;3.03;;;20.10;91.90;;;;;;5022468;28;20022;-91
2022/08/30 02:07:02;;;;;;;5.10;2.95;;;20.00;91.90;;;;;;4998864;28;20031;-90
2022/08/30 02:09:28;;;;;;;5.55;3.28;;;20.00;92.00;;;;;;5019973;28;20026;-91
2022/08/30 02:11:53;;;;;;;5.97;3.08;;;20.00;92.10;;;;;;5018176;28;20394;-90
2022/08/30 02:14:19;;;;;;;4.18;3.00;;;20.00;92.10;;;;;;4993599;28;20029;-90
2022/08/30 02:16:47;;;;;;;7.28;4.03;;;20.00;92.20;;;;;;5014889;28;20516;-91
2022/08/30 02:19:13;;;;;;;4.80;3.15;;;19.90;92.10;;;;;;5005821;28;20025;-91
2022/08/30 02:21:38;;;;;;;5.25;3.22;;;19.90;92.20;;;;;;5018166;28;20025;-89
2022/08/30 02:24:04;;;;;;;4.82;3.45;;;19.90;92.20;;;;;;5009232;28;20034;-89
2022/08/30 02:26:31;;;;;;;6.20;3.03;;;19.90;92.10;;;;;;5014059;28;20013;-88
2022/08/30 02:28:57;;;;;;;5.50;3.30;;;19.90;92.20;;;;;;5011445;28;20018;-91
2022/08/30 02:31:23;;;;;;;4.15;3.13;;;19.90;92.20;;;;;;5016485;28;20109;-90
2022/08/30 02:33:52;;;;;;;5.20;3.60;;;19.90;92.20;;;;;;5017504;28;20441;-91
2022/08/30 02:36:19;;;;;;;5.50;3.53;;;19.80;92.30;;;;;;5035520;28;20022;-91
2022/08/30 02:38:46;;;;;;;6.65;3.80;;;19.80;92.40;;;;;;5021221;28;20026;-91
2022/08/30 02:41:11;;;;;;;5.53;3.50;;;19.80;92.40;;;;;;5015495;28;20034;-90
2022/08/30 02:43:37;;;;;;;5.25;3.97;;;19.80;92.50;;;;;;5000322;28;20049;-91
2022/08/30 02:46:03;;;;;;;5.53;3.85;;;19.70;92.50;;;;;;4999488;28;20433;-90
2022/08/30 02:48:29;;;;;;;4.55;3.33;;;19.70;92.50;;;;;;5018296;28;20018;-91
2022/08/30 02:50:54;;;;;;;6.32;3.70;;;19.70;92.50;;;;;;5005583;28;20066;-91
2022/08/30 02:53:21;;;;;;;5.15;3.67;;;19.70;92.50;;;;;;5019157;28;20094;-91
2022/08/30 02:55:48;;;;;;;5.88;3.58;;;19.70;92.50;;;;;;5017919;28;20065;-91
2022/08/30 02:58:14;;;;;;;6.90;3.90;;;19.70;92.50;;;;;;5021575;28;20018;-91
2022/08/30 03:00:40;;;;;;;5.30;3.17;;;19.60;92.60;;;;;;5019749;28;20502;-92
2022/08/30 03:03:06;;;;;;;6.63;4.10;;;19.60;92.50;;;;;;5033268;28;20026;-91
2022/08/30 03:05:33;;;;;;;5.60;3.58;;;19.60;92.50;;;;;;5034664;28;20021;-90
2022/08/30 03:07:59;;;;;;;6.78;3.80;;;19.60;92.50;;;;;;5036907;28;20018;-91
2022/08/30 03:10:30;;;;;;;5.57;4.00;;;19.50;92.60;;;;;;5039590;28;20038;-89
2022/08/30 03:12:56;;;;;;;5.10;3.70;;;19.60;92.90;;;;;;5039317;28;20176;-91
2022/08/30 03:15:24;;;;;;;6.60;3.97;;;19.50;92.60;;;;;;5011491;28;20049;-92
2022/08/30 03:17:51;;;;;;;5.30;3.88;;;19.50;92.70;;;;;;5013001;28;20025;-91
2022/08/30 03:20:18;;;;;;;5.07;3.53;;;19.50;92.70;;;;;;5001709;28;20025;-91
2022/08/30 03:22:44;;;;;;;4.95;3.95;;;19.50;92.70;;;;;;5015900;28;20056;-90
2022/08/30 03:25:10;;;;;;;5.85;3.67;;;19.40;92.70;;;;;;5014966;28;20026;-91
2022/08/30 03:27:35;;;;;;;4.90;3.70;;;19.40;92.80;;;;;;5015815;28;20018;-91
2022/08/30 03:30:02;;;;;;;6.88;3.92;;;19.40;92.90;;;;;;4997831;28;20038;-91
2022/08/30 03:32:27;;;;;;;4.68;3.85;;;19.40;92.90;;;;;;5013947;28;20018;-91
2022/08/30 03:34:53;;;;;;;5.10;4.25;;;19.40;93.00;;;;;;5000422;28;20030;-91
2022/08/30 03:37:19;;;;;;;5.28;3.65;;;19.40;93.00;;;;;;5004700;28;20049;-91
2022/08/30 03:39:45;;;;;;;7.05;4.22;;;19.30;93.00;;;;;;5011684;28;20034;-91
2022/08/30 03:42:11;;;;;;;5.13;3.95;;;19.30;93.00;;;;;;5000080;28;20037;-92
2022/08/30 03:44:37;;;;;;;5.40;4.18;;;19.30;93.00;;;;;;5020245;28;20033;-92
2022/08/30 03:47:04;;;;;;;5.07;3.90;;;19.30;93.00;;;;;;5020695;28;20052;-92
2022/08/30 03:49:30;;;;;;;6.03;4.25;;;19.30;93.00;;;;;;5015910;28;20026;-91
2022/08/30 03:51:56;;;;;;;4.80;3.63;;;19.20;93.00;;;;;;4995021;28;20030;-92
2022/08/30 03:54:22;;;;;;;5.47;3.63;;;19.20;93.00;;;;;;5000368;28;20030;-91
2022/08/30 03:56:47;;;;;;;5.15;3.67;;;19.20;93.00;;;;;;4989589;28;20031;-92
2022/08/30 03:59:13;;;;;;;5.38;3.95;;;19.20;93.00;;;;;;5002988;28;20037;-91
2022/08/30 04:01:40;;;;;;;5.40;3.85;;;19.20;93.00;;;;;;5022783;28;20034;-93
2022/08/30 04:04:06;;;;;;;5.97;3.83;;;19.20;93.10;;;;;;5023044;28;20026;-92
2022/08/30 04:06:32;;;;;;;4.55;4.03;;;19.10;93.00;;;;;;5004742;28;20084;-91
2022/08/30 04:08:58;;;;;;;7.20;4.35;;;19.10;93.00;;;;;;5021376;28;20017;-92
2022/08/30 04:11:23;;;;;;;5.43;4.43;;;19.10;93.10;;;;;;5021955;28;20030;-92
2022/08/30 04:13:50;;;;;;;4.15;3.45;;;19.10;93.20;;;;;;5006899;28;20425;-91
2022/08/30 04:16:18;;;;;;;7.85;4.18;;;19.00;93.20;;;;;;5004711;28;20038;-91
2022/08/30 04:18:43;;;;;;;9.10;4.57;;;19.00;93.30;;;;;;5029253;28;20084;-91
2022/08/30 04:21:09;;;;;;;4.55;3.22;;;19.00;93.30;;;;;;5027623;28;20030;-91
2022/08/30 04:23:35;;;;;;;6.97;3.58;;;19.00;93.30;;;;;;4989928;28;20050;-91
2022/08/30 04:26:00;;;;;;;6.97;4.32;;;19.00;93.30;;;;;;5022518;28;20064;-91
2022/08/30 04:28:26;;;;;;;5.68;3.95;;;19.00;93.40;;;;;;5020690;28;20100;-91
2022/08/30 04:30:52;;;;;;;5.97;4.18;;;19.00;93.50;;;;;;5004037;28;20148;-91
2022/08/30 04:33:18;;;;;;;6.07;4.03;;;18.90;93.50;;;;;;5005638;28;20395;-90
2022/08/30 04:35:47;;;;;;;4.82;4.00;;;19.00;93.50;;;;;;5035474;28;20029;-91
2022/08/30 04:38:15;;;;;;;4.85;3.30;;;18.90;93.50;;;;;;5014820;28;20042;-92
2022/08/30 04:40:42;;;;;;;4.90;3.40;;;18.90;93.40;;;;;;5003281;28;20026;-92
2022/08/30 04:43:10;;;;;;;5.60;3.35;;;18.90;93.50;;;;;;5011584;28;20042;-92
2022/08/30 04:45:38;;;;;;;4.47;3.28;;;18.90;93.50;;;;;;4997589;28;20030;-91
2022/08/30 04:48:04;;;;;;;5.60;3.65;;;18.90;93.50;;;;;;5017637;28;20018;-90
2022/08/30 04:50:30;;;;;;;4.70;3.00;;;18.80;93.60;;;;;;5016138;28;20580;-91
2022/08/30 04:52:56;;;;;;;4.07;2.97;;;18.80;93.90;;;;;;5029859;28;20057;-89
2022/08/30 04:55:23;;;;;;;6.40;3.88;;;18.80;93.60;;;;;;5000158;28;20061;-92
2022/08/30 04:57:50;;;;;;;5.22;3.22;;;18.80;93.60;;;;;;5000448;28;20049;-87
2022/08/30 05:00:20;;;;;;;5.07;3.03;;;18.80;93.50;;;;;;5015533;28;20034;-87
2022/08/30 05:02:46;;;;;;;4.72;3.10;;;18.80;93.80;;;;;;5001098;28;20022;-88
2022/08/30 05:07:56;;;;;;;4.07;3.13;;;18.80;93.50;;;;;;5014651;28;20402;-90
2022/08/30 05:10:22;;;;;;;6.03;3.00;;;18.70;93.50;;;;;;4979381;28;20039;-91
2022/08/30 05:12:48;;;;;;;6.43;3.35;;;18.70;93.50;;;;;;4994343;28;20030;-91
2022/08/30 05:15:14;;;;;;;4.15;3.28;;;18.70;93.60;;;;;;5000443;28;20053;-92
2022/08/30 05:17:41;;;;;;;5.00;3.25;;;18.70;93.50;;;;;;5029344;28;20461;-93
2022/08/30 05:20:09;;;;;;;4.40;3.05;;;18.70;93.50;;;;;;5018276;28;20056;-91
2022/08/30 05:22:48;;;;;;;4.60;2.80;;;18.70;93.50;;;;;;5018822;28;20054;-92
2022/08/30 05:25:18;;;;;;;3.67;2.90;;;18.70;93.50;;;;;;5017365;28;20018;-92
2022/08/30 05:27:44;;;;;;;4.88;2.72;;;18.60;93.50;;;;;;5019170;28;20025;-90
2022/08/30 05:30:10;;;;;;;3.33;2.92;;;18.60;93.50;;;;;;5016678;28;20052;-90
2022/08/30 05:32:36;;;;;;;6.28;2.90;;;18.70;93.60;;;;;;5020196;28;20026;-90
2022/08/30 05:35:05;;;;;;;4.25;2.70;;;18.60;93.50;;;;;;5020297;28;20033;-92
2022/08/30 05:37:31;;;;;;;5.70;3.25;;;18.60;93.60;;;;;;4999595;28;20037;-90
2022/08/30 05:39:56;;;;;;;3.95;3.03;;;18.60;93.60;;;;;;4999123;28;20033;-91
2022/08/30 05:42:22;;;;;;;3.65;2.53;;;18.60;93.60;;;;;;4999819;28;20117;-91
2022/08/30 05:44:52;;;;;;;4.35;2.85;;;18.60;93.50;;;;;;4999603;28;20086;-92
2022/08/30 05:47:19;;;;;;;4.10;2.78;;;18.60;93.60;;;;;;5009988;28;20037;-92
2022/08/30 05:49:45;;;;;;;4.78;2.60;;;18.60;93.60;;;;;;5005112;28;20069;-90
2022/08/30 05:52:14;;;;;;;3.55;2.58;;;18.60;93.50;;;;;;5005303;28;20034;-92
2022/08/30 05:54:43;;;;;;;4.80;2.70;;;18.60;93.60;;;;;;5006705;28;20025;-90
2022/08/30 05:57:09;;;;;;;6.53;3.10;;;18.60;93.60;;;;;;4997085;28;20022;-91
2022/08/30 05:59:35;;;;;;;4.07;2.95;;;18.60;93.50;;;;;;4990645;28;20053;-91
2022/08/30 06:02:02;;;;;;;6.28;3.00;;;18.60;93.50;;;;;;4988398;28;20034;-91
2022/08/30 06:04:28;;;;;;;4.57;2.47;;;18.60;93.50;;;;;;4995274;28;20030;-91
2022/08/30 06:06:53;;;;;;;5.82;3.30;;;18.60;93.50;;;;;;4980959;28;20500;-92
2022/08/30 06:09:19;;;;;;;3.35;2.38;;;18.60;93.50;;;;;;4973077;28;20031;-91
2022/08/30 06:11:46;;;;;;;3.85;2.63;;;18.60;93.50;;;;;;4986600;28;20042;-91
2022/08/30 06:14:13;;;;;;;4.82;2.90;;;18.60;93.60;;;;;;5011534;28;20034;-92
2022/08/30 06:16:39;;;;;;;4.55;2.83;;;18.60;93.50;;;;;;5012792;28;20108;-91
2022/08/30 06:19:07;;;;;;;3.92;2.50;;;18.60;93.50;;;;;;5012685;28;20077;-91
2022/08/30 06:21:35;;;;;;;4.10;2.45;;;18.60;93.40;;;;;;4994146;28;20038;-92
2022/08/30 06:24:02;;;;;;;3.75;2.38;;;18.60;93.30;;;;;;5012376;28;20493;-92
2022/08/30 06:26:28;;;;;;;3.67;2.22;;;18.60;93.30;;;;;;5013157;28;20029;-95
2022/08/30 06:28:55;;;;;;;4.60;2.45;;;18.70;93.30;;;;;;5013888;28;20029;-92
2022/08/30 06:31:23;;;;;;;4.38;2.30;;;18.60;93.20;;;;;;5017220;28;20021;-91
2022/08/30 06:33:50;;;;;;;4.72;2.25;;;18.70;93.20;;;;;;5023907;28;20029;-90
2022/08/30 06:36:19;;;;;;;4.32;2.20;;;18.70;93.20;;;;;;5014054;28;20023;-90
2022/08/30 06:38:49;;;;;;;3.50;2.10;;;18.70;93.10;;;;;;5028696;28;20446;-91
2022/08/30 06:41:18;;;;;;;3.08;1.88;;;18.70;93.00;;;;;;5010394;28;20030;-92
2022/08/30 06:43:45;;;;;;;2.97;1.98;;;18.70;92.90;;;;;;5016372;28;20033;-93
2022/08/30 06:46:13;;;;;;;3.38;1.88;;;18.80;92.90;;;;;;5006189;28;20028;-92
2022/08/30 06:48:40;;;;;;;3.15;2.03;;;18.80;92.90;;;;;;5012432;28;20060;-92
2022/08/30 06:51:08;;;;;;;2.17;1.60;;;18.80;92.90;;;;;;5013249;28;20096;-91
2022/08/30 06:53:37;;;;;;;2.50;1.65;;;18.80;93.20;;;;;;5014778;28;20113;-93
2022/08/30 06:56:06;;;;;;;4.20;1.88;;;18.80;92.90;;;;;;5013673;28;20022;-92
2022/08/30 06:58:32;;;;;;;2.90;1.80;;;18.80;92.80;;;;;;5013381;28;20118;-92
2022/08/30 07:01:00;;;;;;;3.88;1.95;;;18.80;92.70;;;;;;4997507;28;20029;-92
2022/08/30 07:03:29;;;;;;;2.50;1.63;;;18.90;92.60;;;;;;5009838;28;20093;-92
2022/08/30 07:05:56;;;;;;;3.47;1.85;;;18.90;92.50;;;;;;5013702;28;20030;-91
2022/08/30 07:08:23;;;;;;;2.80;1.60;;;18.90;92.60;;;;;;5013108;28;20022;-91
2022/08/30 07:10:50;;;;;;;2.13;1.60;;;19.00;92.40;;;;;;5012651;28;20030;-91
2022/08/30 07:13:18;;;;;;;2.60;1.73;;;19.00;92.30;;;;;;5014552;28;20048;-88
2022/08/30 07:15:47;;;;;;;2.55;1.80;;;19.00;92.30;;;;;;5014008;28;20026;-91
2022/08/30 07:21:06;;;;;;;2.45;1.70;;;19.00;92.20;;;;;;5016476;28;20508;-94
2022/08/30 07:23:32;;;;;;;2.33;1.67;;;19.10;92.40;;;;;;5033395;28;20109;-92
2022/08/30 07:26:00;;;;;;;3.03;1.90;;;19.10;92.50;;;;;;5021278;28;20026;-92
2022/08/30 07:28:26;;;;;;;3.20;1.90;;;19.10;92.60;;;;;;5016460;28;20018;-92
2022/08/30 07:30:56;;;;;;;3.63;1.60;;;19.20;92.70;;;;;;5024245;28;20029;-87
2022/08/30 07:33:22;;;;;;;2.55;1.35;;;19.20;92.70;;;;;;5022409;28;20084;-93
2022/08/30 07:35:51;;;;;;;2.65;1.75;;;19.20;92.70;;;;;;4996548;28;20390;-95
2022/08/30 07:38:17;;;;;;;3.58;1.52;;;19.30;92.70;;;;;;5012920;28;20489;-96
2022/08/30 07:40:45;;;;;;;1.83;1.30;;;19.40;92.60;;;;;;5013754;28;20038;-96
2022/08/30 07:43:13;;;;;;;1.70;1.60;;;19.40;92.40;;;;;;5013902;28;20092;-96
2022/08/30 07:45:39;;;;;;;4.60;2.00;;;19.40;92.40;;;;;;4997616;28;20034;-94
2022/08/30 07:48:06;;;;;;;1.75;1.30;;;19.50;92.50;;;;;;5013601;28;20087;-93
2022/08/30 07:50:32;;;;;;;4.85;1.70;;;19.50;92.60;;;;;;4988225;28;20050;-94
2022/08/30 07:53:00;;;;;;;2.00;1.50;;;19.60;92.50;;;;;;5028043;28;20136;-95
2022/08/30 07:55:28;;;;;;;3.67;1.40;;;19.60;92.30;;;;;;4993766;28;20033;-95
2022/08/30 07:57:54;;;;;;;1.52;1.10;;;19.70;92.40;;;;;;5012339;28;20488;-90
2022/08/30 08:00:20;;;;;;;3.20;1.50;;;19.80;92.40;;;;;;4996430;28;20026;-92
2022/08/30 08:02:46;;;;;;;7.05;1.60;;;19.80;92.40;;;;;;5014387;28;20069;-92
2022/08/30 08:05:18;;;;;;;3.65;1.20;;;19.90;92.50;;;;;;4996902;28;20458;-94
2022/08/30 08:07:43;;;;;;;1.40;1.30;;;19.90;92.10;;;;;;4996587;28;20117;-91
2022/08/30 08:10:10;;;;;;;1.98;1.20;;;20.00;92.20;;;;;;5004192;28;20037;-91
2022/08/30 08:12:36;;;;;;;3.45;1.45;;;20.10;92.30;;;;;;5014346;28;20464;-91
2022/08/30 08:15:02;;;;;;;2.63;1.27;;;20.10;92.20;;;;;;4996498;28;20049;-93
2022/08/30 08:17:28;;;;;;;2.42;1.00;;;20.20;92.00;;;;;;5012350;28;20018;-91
2022/08/30 08:19:54;;;;;;;3.28;1.27;;;20.30;91.80;;;;;;4995410;28;20018;-91
2022/08/30 08:22:20;;;;;;;1.52;0.88;;;20.40;91.80;;;;;;5012903;28;20054;-91
2022/08/30 08:24:45;;;;;;;1.50;0.90;;;20.40;91.40;;;;;;5000270;28;20026;-94
2022/08/30 08:27:11;;;;;;;5.50;1.10;;;20.50;91.40;;;;;;5017372;28;20425;-91
2022/08/30 08:29:37;;;;;;;2.15;1.10;;;20.60;91.40;;;;;;4996504;28;20042;-92
2022/08/30 08:32:03;;;;;;;3.53;1.27;;;20.60;91.10;;;;;;5015123;28;20029;-92
2022/08/30 08:34:29;;;;;;;1.50;1.10;;;20.70;91.00;;;;;;5016774;28;20473;-91
2022/08/30 08:36:55;;;;;;;3.90;1.17;;;20.80;91.00;;;;;;5017149;28;20037;-92
2022/08/30 08:39:21;;;;;;;4.35;1.30;;;20.80;91.00;;;;;;5015987;28;20474;-93
2022/08/30 08:41:53;;;;;;;5.97;1.20;;;20.90;91.00;;;;;;5017984;28;20474;-91
2022/08/30 08:44:28;;;;;;;2.85;1.35;;;21.00;90.80;;;;;;5015479;28;20022;-91
2022/08/30 08:47:09;;;;;;;2.30;1.05;;;21.10;90.60;;;;;;5016410;28;20022;-94
2022/08/30 08:49:38;;;;;;;3.47;1.23;;;21.20;90.40;;;;;;5015902;28;20033;-92
2022/08/30 08:54:59;;;;;;;1.40;1.30;;;21.30;89.10;;;;;;5008560;28;20110;-93
2022/08/30 08:57:32;;;;;;;2.83;0.90;;;21.40;88.50;;;;;;5016667;28;20028;-93
2022/08/30 08:59:58;;;;;;;6.25;1.40;;;21.50;88.00;;;;;;5015796;28;20056;-93
2022/08/30 09:02:47;;;;;;;3.20;1.52;;;21.50;87.30;;;;;;5017485;28;20026;-92
2022/08/30 09:05:24;;;;;;;1.42;1.02;;;21.60;87.20;;;;;;5016602;28;20525;-91
2022/08/30 09:08:03;;;;;;;2.78;1.35;;;21.60;86.80;;;;;;5012505;28;20017;-95
2022/08/30 09:10:31;;;;;;;5.85;0.90;;;21.70;86.20;;;;;;5017076;28;20030;-91
2022/08/30 09:12:58;;;;;;;3.30;0.98;;;21.80;86.00;;;;;;5010761;28;20029;-92
2022/08/30 09:15:31;;;;;;;2.70;1.00;;;21.90;85.60;;;;;;5009555;28;20030;-93
2022/08/30 09:18:03;;;;;;;2.17;0.95;;;22.00;85.40;;;;;;5011316;28;20018;-92
2022/08/30 09:20:29;;;;;;;3.63;0.95;;;22.00;85.10;;;;;;5011343;28;20079;-93
2022/08/30 09:22:55;;;;;;;2.70;1.08;;;22.10;84.70;;;;;;5016132;28;20045;-93
2022/08/30 09:25:27;;;;;;;5.38;1.20;;;22.10;83.50;;;;;;5015136;28;20045;-94
2022/08/30 09:28:07;;;;;;;2.95;0.90;;;22.20;82.90;;;;;;5016663;28;20094;-93
2022/08/30 09:30:35;;;;;;;2.53;1.17;;;22.30;83.00;;;;;;5021287;28;20026;-92
2022/08/30 09:33:23;;;;;;;1.65;1.23;;;22.30;82.50;;;;;;5025950;28;20014;-93
2022/08/30 09:35:53;;;;;;;1.67;1.15;;;22.40;81.60;;;;;;5038560;28;20022;-87
2022/08/30 09:38:34;;;;;;;2.58;1.20;;;22.50;81.20;;;;;;5009998;28;20058;-94
2022/08/30 09:41:39;;;;;;;;;;;;;;;;;;;;;
2022/08/30 09:44:18;;;;;;;1.45;0.93;;;22.60;80.60;;;;;;5031226;28;20054;-85
2022/08/30 09:46:54;;;;;;;1.35;1.00;;;22.70;80.10;;;;;;5034735;28;20079;-86
2022/08/30 09:49:29;;;;;;;2.83;1.20;;;22.70;80.60;;;;;;5032523;28;20494;-83
2022/08/30 09:52:33;;;;;;;1.35;0.90;;;22.80;80.30;;;;;;5017344;28;20059;-85
2022/08/30 09:55:51;;;;;;;2.83;1.30;;;22.80;80.40;;;;;;5035288;28;20032;-86
2022/08/30 09:58:29;;;;;;;1.65;1.20;;;22.90;79.80;;;;;;5007398;28;20029;-88
2022/08/30 10:01:13;;;;;;;3.00;1.00;;;23.00;79.90;;;;;;5033414;28;20028;-87
2022/08/30 10:03:59;;;;;;;3.45;1.00;;;23.10;80.00;;;;;;5032016;28;20033;-87
2022/08/30 10:06:32;;;;;;;2.05;1.20;;;23.10;79.60;;;;;;5017225;28;20044;-88
2022/08/30 10:09:22;;;;;;;1.92;0.88;;;23.20;79.50;;;;;;5024642;28;20029;-89
2022/08/30 10:12:18;;;;;;;1.98;1.10;;;23.30;79.70;;;;;;5030337;28;20018;-89
2022/08/30 10:14:48;;;;;;;3.42;0.88;;;23.40;79.60;;;;;;5032945;28;20025;-89
2022/08/30 10:17:17;;;;;;;3.05;1.20;;;23.40;79.20;;;;;;5016415;28;20018;-89
2022/08/30 10:20:02;;;;;;;2.42;1.20;;;23.50;79.00;;;;;;5013536;28;20056;-84
2022/08/30 10:22:35;;;;;;;3.83;1.50;;;23.60;78.10;;;;;;5031521;28;20037;-84
2022/08/30 10:25:12;;;;;;;2.90;1.00;;;23.60;77.70;;;;;;5027689;28;20017;-85
2022/08/30 10:28:08;;;;;;;9.00;1.40;;;23.70;77.50;;;;;;5046780;28;20028;-85
2022/08/30 10:30:39;;;;;;;2.65;1.20;;;23.80;77.20;;;;;;5012538;28;20116;-85
2022/08/30 10:33:13;;;;;;;1.38;1.02;;;23.80;76.70;;;;;;5032079;28;20029;-84
2022/08/30 10:35:46;;;;;;;3.25;1.15;;;23.90;76.70;;;;;;5007044;28;20014;-85
2022/08/30 10:38:29;;;;;;;3.08;1.17;;;23.90;76.40;;;;;;5013217;28;20022;-84
2022/08/30 10:41:16;;;;;;;2.80;1.30;;;24.00;75.90;;;;;;5015854;28;20021;-85
2022/08/30 10:43:51;;;;;;;3.45;1.20;;;24.00;75.70;;;;;;5016426;28;20038;-84
2022/08/30 10:47:03;;;;;;;1.60;1.17;;;24.10;76.30;;;;;;5033129;28;20030;-84
2022/08/30 10:49:42;;;;;;;2.33;1.00;;;24.20;75.50;;;;;;4997508;28;20030;-85
2022/08/30 10:52:29;;;;;;;2.28;1.02;;;24.20;75.00;;;;;;5016849;28;20387;-82
2022/08/30 10:55:01;;;;;;;3.05;1.33;;;24.30;74.80;;;;;;5010006;28;20066;-84
2022/08/30 10:57:27;;;;;;;3.30;1.35;;;24.30;74.10;;;;;;5015622;28;20025;-83
2022/08/30 11:00:00;;;;;;;3.30;1.02;;;24.40;73.60;;;;;;5009610;28;20392;-83
2022/08/30 11:02:57;;;;;;;2.05;0.98;;;24.40;72.90;;;;;;5010262;28;20420;-83
2022/08/30 11:05:32;;;;;;;2.80;1.10;;;24.50;72.00;;;;;;5009083;28;20017;-83
2022/08/30 11:08:18;;;;;;;1.40;1.15;;;24.50;71.20;;;;;;5013926;28;20025;-83
2022/08/30 11:11:05;;;;;;;2.97;1.08;;;24.60;70.60;;;;;;5012610;28;20033;-83
2022/08/30 11:13:35;;;;;;;1.65;1.08;;;24.60;70.60;;;;;;5020749;28;20062;-82
2022/08/30 11:16:03;;;;;;;2.63;1.20;;;24.70;70.10;;;;;;4994386;28;20042;-83
2022/08/30 11:18:43;;;;;;;2.35;1.30;;;24.70;69.90;;;;;;4994147;28;20058;-83
2022/08/30 11:21:34;;;;;;;3.28;1.35;;;24.80;69.80;;;;;;5005942;28;20026;-81
2022/08/30 11:24:03;;;;;;;3.40;1.40;;;24.80;69.70;;;;;;5011100;28;20022;-82
2022/08/30 11:26:44;;;;;;;2.05;1.15;;;24.90;69.40;;;;;;5013576;28;20052;-82
2022/08/30 11:29:29;;;;;;;5.72;1.35;;;25.00;68.90;;;;;;5012382;28;20026;-82
2022/08/30 11:32:11;;;;;;;2.40;1.38;;;25.00;68.10;;;;;;5013583;28;20379;-83
2022/08/30 11:34:46;;;;;;;2.30;1.40;;;25.10;67.40;;;;;;5025883;28;20526;-83
2022/08/30 11:37:39;;;;;;;4.57;1.30;;;25.10;66.90;;;;;;5028152;28;20014;-84
2022/08/30 11:40:46;;;;;;;3.42;1.55;;;25.20;65.80;;;;;;5006749;28;20463;-83
2022/08/30 11:43:33;;;;;;;2.20;1.20;;;25.30;65.50;;;;;;5028335;28;20038;-83
2022/08/30 11:46:23;;;;;;;4.32;1.25;;;25.30;65.00;;;;;;5012600;28;20023;-84
2022/08/30 11:49:11;;;;;;;2.63;1.00;;;25.30;65.00;;;;;;5018917;28;20549;-85
2022/08/30 11:51:59;;;;;;;4.22;1.20;;;25.50;65.50;;;;;;5017091;28;20391;-84
2022/08/30 11:54:39;;;;;;;1.90;1.17;;;25.50;66.20;;;;;;5015299;28;20053;-83
2022/08/30 11:57:21;;;;;;;2.45;1.45;;;25.60;66.30;;;;;;4997069;28;20077;-84
2022/08/30 11:59:54;;;;;;;4.43;1.13;;;25.60;66.00;;;;;;5013145;28;20018;-84
2022/08/30 12:02:46;;;;;;;2.35;1.20;;;25.70;66.10;;;;;;5017533;28;20105;-84
2022/08/30 12:05:41;;;;;;;4.65;1.58;;;25.80;66.00;;;;;;5015941;28;20030;-83
2022/08/30 12:08:27;;;;;;;2.05;1.10;;;25.90;65.40;;;;;;5006294;28;20054;-83
2022/08/30 12:10:59;;;;;;;3.50;1.20;;;25.90;64.90;;;;;;5000216;28;20069;-83
2022/08/30 12:13:45;;;;;;;2.45;1.10;;;26.00;64.40;;;;;;5004804;28;20026;-84
2022/08/30 12:16:19;;;;;;;2.17;1.00;;;26.10;64.00;;;;;;5000346;28;20080;-84
2022/08/30 12:19:03;;;;;;;3.60;1.10;;;26.10;63.70;;;;;;5030467;28;20045;-84
2022/08/30 12:21:33;;;;;;;4.88;1.08;;;26.20;63.20;;;;;;5006926;28;20084;-84
2022/08/30 12:24:17;;;;;;;1.65;0.82;;;26.20;63.20;;;;;;5031504;28;20012;-84
2022/08/30 12:26:45;;;;;;;1.83;1.17;;;26.30;62.80;;;;;;5016605;28;20022;-84
2022/08/30 12:29:22;;;;;;;4.57;1.20;;;26.30;62.50;;;;;;5015070;28;20025;-83
2022/08/30 12:32:17;;;;;;;1.98;1.33;;;26.30;62.00;;;;;;5015244;28;20096;-84
2022/08/30 12:34:43;;;;;;;2.58;1.30;;;26.40;62.40;;;;;;5015592;28;20018;-83
2022/08/30 12:37:22;;;;;;;2.38;1.30;;;26.50;62.60;;;;;;5016617;28;20029;-83
2022/08/30 12:39:58;;;;;;;3.75;1.02;;;26.50;62.10;;;;;;5014995;28;20442;-82
2022/08/30 12:42:30;;;;;;;4.03;1.42;;;26.50;61.30;;;;;;5031538;28;20045;-83
2022/08/30 12:45:03;;;;;;;1.98;1.00;;;26.60;61.00;;;;;;5015276;28;20037;-83
2022/08/30 12:47:48;;;;;;;3.28;1.30;;;26.70;61.00;;;;;;5015310;28;20017;-83
2022/08/30 12:50:22;;;;;;;2.65;1.50;;;26.70;61.50;;;;;;5014991;28;20432;-83
2022/08/30 12:52:58;;;;;;;1.50;1.00;;;26.70;61.20;;;;;;5016328;28;20022;-83
2022/08/30 12:55:29;;;;;;;3.80;1.70;;;26.80;61.00;;;;;;5031323;28;20108;-83
2022/08/30 12:58:00;;;;;;;;;;;26.90;60.10;;;;;;5031886;28;20036;-83
2022/08/30 13:00:30;;;;;;;1.48;1.15;;;26.90;59.80;;;;;;5016010;28;19906;-83
2022/08/30 13:02:59;;;;;;;2.40;1.20;;;26.90;60.20;;;;;;5016041;28;20022;-83
2022/08/30 13:05:42;;;;;;;2.13;1.33;;;27.00;60.70;;;;;;5031293;28;20026;-82
2022/08/30 13:08:10;;;;;;;2.67;1.40;;;27.10;60.00;;;;;;5013856;28;20097;-83
2022/08/30 13:10:46;;;;;;;2.53;1.38;;;27.10;59.20;;;;;;5031029;28;20088;-83
2022/08/30 13:13:30;;;;;;;4.22;1.27;;;27.10;58.80;;;;;;5018156;28;20032;-82
2022/08/30 13:15:56;;;;;;;2.53;1.35;;;27.20;58.60;;;;;;5014512;28;20030;-83